Leipsic, Ohio
Current Conditions -  °F | °C
As of 8:53 AM on Wednesday 26 Nov 2014 (Local Time) from KFDY Reporting Station
Overcast Overcast  
Wind Chill: 24°   Ceiling: 2000
Heat Index: 30°   Visibility: 10mi
Dew Point: 21°   Wind: 6mph
Humidity: 69%   Direction: 30°NNE
Pressure: 30.14"   Gusts: NA
Location:  41.1°N, 83.98°W
Report Text: KFDY 261353Z AUTO 03005KT 10SM OVC020 M01/M06 A3014 RMK AO2 SLP214 T10111061
Loading
Personal Weather Stations






























Interactive Weather Map New forecast layout! Learn more

10-Day Weather Forecast

Advertisements
Track Severe Weather on mobile